sensor_id;sensor_type;location;lat;lon;timestamp;P1;durP1;ratioP1;P2;durP2;ratioP2
72439;SDS011;60446;50.752;4.352;2022-12-18T00:01:19;16.90;;;7.13;;
72439;SDS011;60446;50.752;4.352;2022-12-18T00:03:54;18.00;;;6.20;;
72439;SDS011;60446;50.752;4.352;2022-12-18T00:06:21;15.93;;;6.68;;
72439;SDS011;60446;50.752;4.352;2022-12-18T00:08:48;14.63;;;5.03;;
72439;SDS011;60446;50.752;4.352;2022-12-18T00:11:15;16.83;;;5.82;;
72439;SDS011;60446;50.752;4.352;2022-12-18T00:13:43;20.80;;;6.33;;
72439;SDS011;60446;50.752;4.352;2022-12-18T00:16:10;19.90;;;7.85;;
72439;SDS011;60446;50.752;4.352;2022-12-18T00:18:39;17.92;;;6.88;;
72439;SDS011;60446;50.752;4.352;2022-12-18T00:21:07;16.20;;;6.22;;
72439;SDS011;60446;50.752;4.352;2022-12-18T00:23:35;16.65;;;7.07;;
72439;SDS011;60446;50.752;4.352;2022-12-18T00:26:04;15.37;;;6.07;;
72439;SDS011;60446;50.752;4.352;2022-12-18T00:28:34;17.08;;;7.50;;
72439;SDS011;60446;50.752;4.352;2022-12-18T00:31:05;12.05;;;5.72;;
72439;SDS011;60446;50.752;4.352;2022-12-18T00:33:33;13.45;;;5.15;;
72439;SDS011;60446;50.752;4.352;2022-12-18T00:36:00;13.50;;;5.13;;
72439;SDS011;60446;50.752;4.352;2022-12-18T00:38:27;22.40;;;5.03;;
72439;SDS011;60446;50.752;4.352;2022-12-18T00:40:53;16.77;;;4.68;;
72439;SDS011;60446;50.752;4.352;2022-12-18T00:43:19;11.68;;;4.97;;
72439;SDS011;60446;50.752;4.352;2022-12-18T00:45:45;13.37;;;5.80;;
72439;SDS011;60446;50.752;4.352;2022-12-18T00:48:10;13.82;;;5.90;;
72439;SDS011;60446;50.752;4.352;2022-12-18T00:50:36;6.40;;;3.75;;
72439;SDS011;60446;50.752;4.352;2022-12-18T00:53:03;13.05;;;4.47;;
72439;SDS011;60446;50.752;4.352;2022-12-18T00:55:29;9.95;;;5.47;;
72439;SDS011;60446;50.752;4.352;2022-12-18T00:57:54;16.63;;;5.60;;
72439;SDS011;60446;50.752;4.352;2022-12-18T01:00:20;15.32;;;5.22;;
72439;SDS011;60446;50.752;4.352;2022-12-18T01:02:47;14.27;;;4.50;;
72439;SDS011;60446;50.752;4.352;2022-12-18T01:05:16;13.63;;;4.75;;
72439;SDS011;60446;50.752;4.352;2022-12-18T01:07:44;12.37;;;5.13;;
72439;SDS011;60446;50.752;4.352;2022-12-18T01:10:11;15.73;;;5.55;;
72439;SDS011;60446;50.752;4.352;2022-12-18T01:12:37;17.83;;;5.57;;
72439;SDS011;60446;50.752;4.352;2022-12-18T01:15:04;13.77;;;5.35;;
72439;SDS011;60446;50.752;4.352;2022-12-18T01:17:34;13.27;;;4.63;;
72439;SDS011;60446;50.752;4.352;2022-12-18T01:20:00;8.88;;;3.90;;
72439;SDS011;60446;50.752;4.352;2022-12-18T01:22:26;9.35;;;4.07;;
72439;SDS011;60446;50.752;4.352;2022-12-18T01:24:52;13.67;;;5.43;;
72439;SDS011;60446;50.752;4.352;2022-12-18T01:27:18;22.88;;;6.00;;
72439;SDS011;60446;50.752;4.352;2022-12-18T01:29:44;11.52;;;4.28;;
72439;SDS011;60446;50.752;4.352;2022-12-18T01:32:09;12.37;;;4.90;;
72439;SDS011;60446;50.752;4.352;2022-12-18T01:34:36;17.25;;;5.70;;
72439;SDS011;60446;50.752;4.352;2022-12-18T01:37:05;10.73;;;4.47;;
72439;SDS011;60446;50.752;4.352;2022-12-18T01:39:31;12.30;;;3.40;;
72439;SDS011;60446;50.752;4.352;2022-12-18T01:41:58;9.05;;;4.13;;
72439;SDS011;60446;50.752;4.352;2022-12-18T01:50:06;10.75;;;4.25;;
72439;SDS011;60446;50.752;4.352;2022-12-18T01:52:41;8.13;;;2.27;;
72439;SDS011;60446;50.752;4.352;2022-12-18T01:55:10;8.35;;;3.75;;
72439;SDS011;60446;50.752;4.352;2022-12-18T01:57:38;10.18;;;3.67;;
72439;SDS011;60446;50.752;4.352;2022-12-18T02:00:08;10.88;;;3.92;;
72439;SDS011;60446;50.752;4.352;2022-12-18T02:02:41;11.88;;;3.63;;
72439;SDS011;60446;50.752;4.352;2022-12-18T02:05:09;14.20;;;3.23;;
72439;SDS011;60446;50.752;4.352;2022-12-18T02:07:54;9.82;;;2.97;;
72439;SDS011;60446;50.752;4.352;2022-12-18T02:10:56;10.50;;;3.70;;
72439;SDS011;60446;50.752;4.352;2022-12-18T02:13:41;18.35;;;2.92;;
72439;SDS011;60446;50.752;4.352;2022-12-18T02:19:12;4.53;;;1.80;;
72439;SDS011;60446;50.752;4.352;2022-12-18T02:27:39;8.77;;;2.80;;
72439;SDS011;60446;50.752;4.352;2022-12-18T02:30:08;5.43;;;2.55;;
72439;SDS011;60446;50.752;4.352;2022-12-18T02:32:39;7.57;;;3.50;;
72439;SDS011;60446;50.752;4.352;2022-12-18T02:35:10;9.32;;;2.65;;
72439;SDS011;60446;50.752;4.352;2022-12-18T02:37:42;11.30;;;4.13;;
72439;SDS011;60446;50.752;4.352;2022-12-18T02:40:10;9.80;;;3.55;;
72439;SDS011;60446;50.752;4.352;2022-12-18T02:42:38;8.93;;;3.13;;
72439;SDS011;60446;50.752;4.352;2022-12-18T02:45:03;8.43;;;3.37;;
72439;SDS011;60446;50.752;4.352;2022-12-18T02:47:35;5.55;;;2.25;;
72439;SDS011;60446;50.752;4.352;2022-12-18T02:58:44;6.45;;;3.03;;
72439;SDS011;60446;50.752;4.352;2022-12-18T03:04:18;8.80;;;2.55;;
72439;SDS011;60446;50.752;4.352;2022-12-18T03:07:15;7.20;;;2.67;;
72439;SDS011;60446;50.752;4.352;2022-12-18T03:09:52;7.70;;;2.57;;
72439;SDS011;60446;50.752;4.352;2022-12-18T03:12:21;9.02;;;3.58;;
72439;SDS011;60446;50.752;4.352;2022-12-18T03:15:05;10.32;;;2.88;;
72439;SDS011;60446;50.752;4.352;2022-12-18T03:17:56;7.05;;;3.17;;
72439;SDS011;60446;50.752;4.352;2022-12-18T03:20:29;7.00;;;2.42;;
72439;SDS011;60446;50.752;4.352;2022-12-18T03:23:02;5.37;;;1.33;;
72439;SDS011;60446;50.752;4.352;2022-12-18T03:25:34;5.57;;;1.98;;
72439;SDS011;60446;50.752;4.352;2022-12-18T03:28:06;9.77;;;3.03;;
72439;SDS011;60446;50.752;4.352;2022-12-18T03:30:36;6.68;;;2.35;;
72439;SDS011;60446;50.752;4.352;2022-12-18T03:35:44;4.13;;;1.97;;
72439;SDS011;60446;50.752;4.352;2022-12-18T03:38:11;6.60;;;1.80;;
72439;SDS011;60446;50.752;4.352;2022-12-18T03:40:43;8.43;;;2.55;;
72439;SDS011;60446;50.752;4.352;2022-12-18T03:43:29;7.13;;;2.25;;
72439;SDS011;60446;50.752;4.352;2022-12-18T03:46:06;7.15;;;2.65;;
72439;SDS011;60446;50.752;4.352;2022-12-18T03:49:01;6.10;;;2.23;;
72439;SDS011;60446;50.752;4.352;2022-12-18T03:51:38;6.75;;;2.70;;
72439;SDS011;60446;50.752;4.352;2022-12-18T03:54:12;5.25;;;2.33;;
72439;SDS011;60446;50.752;4.352;2022-12-18T03:56:40;5.45;;;2.33;;
72439;SDS011;60446;50.752;4.352;2022-12-18T03:59:11;5.88;;;2.35;;
72439;SDS011;60446;50.752;4.352;2022-12-18T04:01:40;6.13;;;2.27;;
72439;SDS011;60446;50.752;4.352;2022-12-18T04:04:11;5.75;;;2.17;;
72439;SDS011;60446;50.752;4.352;2022-12-18T04:06:39;5.20;;;2.28;;
72439;SDS011;60446;50.752;4.352;2022-12-18T04:09:07;5.57;;;2.30;;
72439;SDS011;60446;50.752;4.352;2022-12-18T04:11:33;8.00;;;2.30;;
72439;SDS011;60446;50.752;4.352;2022-12-18T04:13:59;7.80;;;2.03;;
72439;SDS011;60446;50.752;4.352;2022-12-18T04:16:25;7.28;;;2.80;;
72439;SDS011;60446;50.752;4.352;2022-12-18T04:18:52;9.30;;;2.97;;
72439;SDS011;60446;50.752;4.352;2022-12-18T04:21:19;6.95;;;2.20;;
72439;SDS011;60446;50.752;4.352;2022-12-18T04:23:45;6.03;;;2.10;;
72439;SDS011;60446;50.752;4.352;2022-12-18T04:26:11;4.20;;;1.60;;
72439;SDS011;60446;50.752;4.352;2022-12-18T04:28:37;5.85;;;2.03;;
72439;SDS011;60446;50.752;4.352;2022-12-18T04:31:03;4.17;;;1.20;;
72439;SDS011;60446;50.752;4.352;2022-12-18T04:33:30;5.63;;;2.22;;
72439;SDS011;60446;50.752;4.352;2022-12-18T04:35:55;6.18;;;2.13;;
72439;SDS011;60446;50.752;4.352;2022-12-18T04:38:21;5.33;;;2.17;;
72439;SDS011;60446;50.752;4.352;2022-12-18T04:40:47;5.97;;;1.98;;
72439;SDS011;60446;50.752;4.352;2022-12-18T04:43:13;8.83;;;3.20;;
72439;SDS011;60446;50.752;4.352;2022-12-18T04:45:39;5.20;;;2.53;;
72439;SDS011;60446;50.752;4.352;2022-12-18T04:48:05;7.53;;;1.57;;
72439;SDS011;60446;50.752;4.352;2022-12-18T04:50:31;5.05;;;1.58;;
72439;SDS011;60446;50.752;4.352;2022-12-18T04:52:57;7.90;;;2.10;;
72439;SDS011;60446;50.752;4.352;2022-12-18T04:55:23;5.38;;;2.28;;
72439;SDS011;60446;50.752;4.352;2022-12-18T04:57:50;7.30;;;2.73;;
72439;SDS011;60446;50.752;4.352;2022-12-18T05:00:16;8.52;;;2.17;;
72439;SDS011;60446;50.752;4.352;2022-12-18T05:02:42;6.20;;;2.08;;
72439;SDS011;60446;50.752;4.352;2022-12-18T05:05:08;5.30;;;1.60;;
72439;SDS011;60446;50.752;4.352;2022-12-18T05:07:34;5.50;;;1.25;;
72439;SDS011;60446;50.752;4.352;2022-12-18T05:10:00;3.55;;;1.42;;
72439;SDS011;60446;50.752;4.352;2022-12-18T05:12:25;6.47;;;2.00;;
72439;SDS011;60446;50.752;4.352;2022-12-18T05:14:51;5.80;;;2.08;;
72439;SDS011;60446;50.752;4.352;2022-12-18T05:17:17;3.50;;;1.20;;
72439;SDS011;60446;50.752;4.352;2022-12-18T05:19:43;8.02;;;2.45;;
72439;SDS011;60446;50.752;4.352;2022-12-18T05:22:09;5.90;;;1.90;;
72439;SDS011;60446;50.752;4.352;2022-12-18T05:24:36;6.23;;;1.97;;
72439;SDS011;60446;50.752;4.352;2022-12-18T05:27:02;7.03;;;2.08;;
72439;SDS011;60446;50.752;4.352;2022-12-18T05:29:28;7.10;;;2.47;;
72439;SDS011;60446;50.752;4.352;2022-12-18T05:31:54;8.27;;;2.83;;
72439;SDS011;60446;50.752;4.352;2022-12-18T05:34:20;5.13;;;2.00;;
72439;SDS011;60446;50.752;4.352;2022-12-18T05:36:46;6.65;;;1.77;;
72439;SDS011;60446;50.752;4.352;2022-12-18T05:39:12;4.90;;;1.77;;
72439;SDS011;60446;50.752;4.352;2022-12-18T05:41:37;4.97;;;1.85;;
72439;SDS011;60446;50.752;4.352;2022-12-18T05:44:03;7.73;;;1.73;;
72439;SDS011;60446;50.752;4.352;2022-12-18T05:46:29;6.45;;;2.30;;
72439;SDS011;60446;50.752;4.352;2022-12-18T05:48:58;4.20;;;1.92;;
72439;SDS011;60446;50.752;4.352;2022-12-18T05:51:26;3.03;;;0.93;;
72439;SDS011;60446;50.752;4.352;2022-12-18T05:53:52;4.03;;;0.75;;
72439;SDS011;60446;50.752;4.352;2022-12-18T05:56:19;3.88;;;1.50;;
72439;SDS011;60446;50.752;4.352;2022-12-18T05:58:46;7.70;;;2.08;;
72439;SDS011;60446;50.752;4.352;2022-12-18T06:01:17;3.43;;;1.03;;
72439;SDS011;60446;50.752;4.352;2022-12-18T06:03:46;5.45;;;1.15;;
72439;SDS011;60446;50.752;4.352;2022-12-18T06:06:13;4.63;;;1.25;;
72439;SDS011;60446;50.752;4.352;2022-12-18T06:08:44;3.10;;;1.45;;
72439;SDS011;60446;50.752;4.352;2022-12-18T06:11:11;3.17;;;1.03;;
72439;SDS011;60446;50.752;4.352;2022-12-18T06:13:37;3.10;;;1.23;;
72439;SDS011;60446;50.752;4.352;2022-12-18T06:16:04;8.07;;;2.15;;
72439;SDS011;60446;50.752;4.352;2022-12-18T06:18:31;3.85;;;1.63;;
72439;SDS011;60446;50.752;4.352;2022-12-18T06:20:57;4.77;;;1.90;;
72439;SDS011;60446;50.752;4.352;2022-12-18T06:23:24;4.82;;;1.80;;
72439;SDS011;60446;50.752;4.352;2022-12-18T06:25:50;4.05;;;1.65;;
72439;SDS011;60446;50.752;4.352;2022-12-18T06:28:17;4.68;;;1.80;;
72439;SDS011;60446;50.752;4.352;2022-12-18T06:30:44;7.38;;;1.73;;
72439;SDS011;60446;50.752;4.352;2022-12-18T06:33:11;3.43;;;1.37;;
72439;SDS011;60446;50.752;4.352;2022-12-18T06:35:37;6.53;;;2.13;;
72439;SDS011;60446;50.752;4.352;2022-12-18T06:38:03;7.15;;;2.00;;
72439;SDS011;60446;50.752;4.352;2022-12-18T06:40:29;8.77;;;2.88;;
72439;SDS011;60446;50.752;4.352;2022-12-18T06:42:55;6.53;;;2.07;;
72439;SDS011;60446;50.752;4.352;2022-12-18T06:45:21;6.15;;;1.63;;
72439;SDS011;60446;50.752;4.352;2022-12-18T06:47:47;10.37;;;2.57;;
72439;SDS011;60446;50.752;4.352;2022-12-18T06:50:13;4.40;;;1.65;;
72439;SDS011;60446;50.752;4.352;2022-12-18T06:52:39;3.45;;;1.20;;
72439;SDS011;60446;50.752;4.352;2022-12-18T06:55:05;7.13;;;2.53;;
72439;SDS011;60446;50.752;4.352;2022-12-18T06:57:36;2.53;;;0.93;;
72439;SDS011;60446;50.752;4.352;2022-12-18T07:00:03;5.28;;;1.25;;
72439;SDS011;60446;50.752;4.352;2022-12-18T07:02:31;7.03;;;2.08;;
72439;SDS011;60446;50.752;4.352;2022-12-18T07:04:57;4.18;;;1.95;;
72439;SDS011;60446;50.752;4.352;2022-12-18T07:07:23;4.47;;;2.00;;
72439;SDS011;60446;50.752;4.352;2022-12-18T07:09:49;5.63;;;1.80;;
72439;SDS011;60446;50.752;4.352;2022-12-18T07:12:16;6.80;;;2.30;;
72439;SDS011;60446;50.752;4.352;2022-12-18T07:14:42;6.82;;;1.63;;
72439;SDS011;60446;50.752;4.352;2022-12-18T07:17:08;6.90;;;1.53;;
72439;SDS011;60446;50.752;4.352;2022-12-18T07:19:34;6.20;;;2.15;;
72439;SDS011;60446;50.752;4.352;2022-12-18T07:22:00;6.82;;;2.80;;
72439;SDS011;60446;50.752;4.352;2022-12-18T07:24:26;6.50;;;1.70;;
72439;SDS011;60446;50.752;4.352;2022-12-18T07:26:52;6.00;;;1.83;;
72439;SDS011;60446;50.752;4.352;2022-12-18T07:29:18;9.15;;;2.17;;
72439;SDS011;60446;50.752;4.352;2022-12-18T07:31:44;5.03;;;2.13;;
72439;SDS011;60446;50.752;4.352;2022-12-18T07:34:13;7.25;;;2.33;;
72439;SDS011;60446;50.752;4.352;2022-12-18T07:36:40;6.35;;;1.75;;
72439;SDS011;60446;50.752;4.352;2022-12-18T07:39:06;9.82;;;2.90;;
72439;SDS011;60446;50.752;4.352;2022-12-18T07:41:32;6.43;;;1.92;;
72439;SDS011;60446;50.752;4.352;2022-12-18T07:43:58;6.93;;;1.83;;
72439;SDS011;60446;50.752;4.352;2022-12-18T07:46:24;4.25;;;2.00;;
72439;SDS011;60446;50.752;4.352;2022-12-18T07:48:50;6.13;;;2.20;;
72439;SDS011;60446;50.752;4.352;2022-12-18T07:51:16;3.97;;;1.50;;
72439;SDS011;60446;50.752;4.352;2022-12-18T07:53:43;4.20;;;1.60;;
72439;SDS011;60446;50.752;4.352;2022-12-18T07:56:10;5.50;;;1.83;;
72439;SDS011;60446;50.752;4.352;2022-12-18T07:58:37;5.85;;;1.48;;
72439;SDS011;60446;50.752;4.352;2022-12-18T08:01:07;5.43;;;2.47;;
72439;SDS011;60446;50.752;4.352;2022-12-18T08:03:36;5.68;;;1.98;;
72439;SDS011;60446;50.752;4.352;2022-12-18T08:06:04;6.32;;;1.95;;
72439;SDS011;60446;50.752;4.352;2022-12-18T08:08:33;3.10;;;1.63;;
72439;SDS011;60446;50.752;4.352;2022-12-18T08:10:59;5.65;;;1.10;;
72439;SDS011;60446;50.752;4.352;2022-12-18T08:13:26;4.38;;;2.05;;
72439;SDS011;60446;50.752;4.352;2022-12-18T08:15:59;5.22;;;1.60;;
72439;SDS011;60446;50.752;4.352;2022-12-18T08:18:32;4.15;;;1.60;;
72439;SDS011;60446;50.752;4.352;2022-12-18T08:21:13;8.53;;;2.60;;
72439;SDS011;60446;50.752;4.352;2022-12-18T08:23:45;3.22;;;1.20;;
72439;SDS011;60446;50.752;4.352;2022-12-18T08:26:12;6.55;;;2.30;;
72439;SDS011;60446;50.752;4.352;2022-12-18T08:28:38;5.25;;;2.17;;
72439;SDS011;60446;50.752;4.352;2022-12-18T08:31:05;5.13;;;2.35;;
72439;SDS011;60446;50.752;4.352;2022-12-18T08:33:32;4.63;;;1.97;;
72439;SDS011;60446;50.752;4.352;2022-12-18T08:35:59;5.78;;;2.80;;
72439;SDS011;60446;50.752;4.352;2022-12-18T08:38:26;7.43;;;2.50;;
72439;SDS011;60446;50.752;4.352;2022-12-18T08:40:59;7.00;;;2.08;;
72439;SDS011;60446;50.752;4.352;2022-12-18T08:43:27;8.88;;;2.85;;
72439;SDS011;60446;50.752;4.352;2022-12-18T08:46:12;5.50;;;2.13;;
72439;SDS011;60446;50.752;4.352;2022-12-18T08:48:41;4.78;;;1.77;;
72439;SDS011;60446;50.752;4.352;2022-12-18T08:51:07;9.02;;;2.67;;
72439;SDS011;60446;50.752;4.352;2022-12-18T08:53:34;6.75;;;2.22;;
72439;SDS011;60446;50.752;4.352;2022-12-18T08:56:01;4.05;;;1.95;;
72439;SDS011;60446;50.752;4.352;2022-12-18T08:58:28;4.07;;;2.20;;
72439;SDS011;60446;50.752;4.352;2022-12-18T09:00:59;8.20;;;3.85;;
72439;SDS011;60446;50.752;4.352;2022-12-18T09:03:29;9.05;;;3.28;;
72439;SDS011;60446;50.752;4.352;2022-12-18T09:05:55;4.78;;;1.63;;
72439;SDS011;60446;50.752;4.352;2022-12-18T09:08:21;9.17;;;4.07;;
72439;SDS011;60446;50.752;4.352;2022-12-18T09:10:48;9.65;;;3.00;;
72439;SDS011;60446;50.752;4.352;2022-12-18T09:13:15;10.98;;;3.47;;
72439;SDS011;60446;50.752;4.352;2022-12-18T09:15:44;6.63;;;2.53;;
72439;SDS011;60446;50.752;4.352;2022-12-18T09:18:21;7.93;;;2.97;;
72439;SDS011;60446;50.752;4.352;2022-12-18T09:20:48;8.65;;;3.25;;
72439;SDS011;60446;50.752;4.352;2022-12-18T09:23:15;11.13;;;3.33;;
72439;SDS011;60446;50.752;4.352;2022-12-18T09:25:41;9.07;;;2.88;;
72439;SDS011;60446;50.752;4.352;2022-12-18T09:28:11;11.53;;;4.13;;
72439;SDS011;60446;50.752;4.352;2022-12-18T09:30:44;7.50;;;3.25;;
72439;SDS011;60446;50.752;4.352;2022-12-18T09:33:15;11.40;;;4.05;;
72439;SDS011;60446;50.752;4.352;2022-12-18T09:35:42;8.73;;;4.03;;
72439;SDS011;60446;50.752;4.352;2022-12-18T09:38:13;9.43;;;3.33;;
72439;SDS011;60446;50.752;4.352;2022-12-18T09:40:43;16.40;;;4.17;;
72439;SDS011;60446;50.752;4.352;2022-12-18T09:43:19;16.08;;;4.30;;
72439;SDS011;60446;50.752;4.352;2022-12-18T09:45:54;11.20;;;4.00;;
72439;SDS011;60446;50.752;4.352;2022-12-18T09:48:37;12.15;;;4.30;;
72439;SDS011;60446;50.752;4.352;2022-12-18T09:51:18;8.05;;;3.38;;
72439;SDS011;60446;50.752;4.352;2022-12-18T09:53:51;8.23;;;3.67;;
72439;SDS011;60446;50.752;4.352;2022-12-18T09:56:25;11.13;;;4.32;;
72439;SDS011;60446;50.752;4.352;2022-12-18T09:58:57;10.75;;;5.20;;
72439;SDS011;60446;50.752;4.352;2022-12-18T10:01:25;10.90;;;3.58;;
72439;SDS011;60446;50.752;4.352;2022-12-18T10:03:54;9.95;;;4.22;;
72439;SDS011;60446;50.752;4.352;2022-12-18T10:11:58;11.98;;;4.10;;
72439;SDS011;60446;50.752;4.352;2022-12-18T10:17:41;9.50;;;3.90;;
72439;SDS011;60446;50.752;4.352;2022-12-18T10:26:05;11.30;;;3.47;;
72439;SDS011;60446;50.752;4.352;2022-12-18T10:28:35;11.15;;;4.95;;
72439;SDS011;60446;50.752;4.352;2022-12-18T10:31:07;11.88;;;4.18;;
72439;SDS011;60446;50.752;4.352;2022-12-18T10:33:46;9.30;;;3.43;;
72439;SDS011;60446;50.752;4.352;2022-12-18T10:36:12;11.52;;;3.83;;
72439;SDS011;60446;50.752;4.352;2022-12-18T10:38:38;12.07;;;3.70;;
72439;SDS011;60446;50.752;4.352;2022-12-18T10:46:48;11.30;;;4.03;;
72439;SDS011;60446;50.752;4.352;2022-12-18T10:49:27;9.25;;;3.50;;
72439;SDS011;60446;50.752;4.352;2022-12-18T10:54:48;9.88;;;3.45;;
72439;SDS011;60446;50.752;4.352;2022-12-18T10:57:35;9.40;;;3.60;;
72439;SDS011;60446;50.752;4.352;2022-12-18T11:02:50;9.15;;;3.60;;
72439;SDS011;60446;50.752;4.352;2022-12-18T11:07:53;11.82;;;3.55;;
72439;SDS011;60446;50.752;4.352;2022-12-18T11:10:22;10.40;;;3.43;;
72439;SDS011;60446;50.752;4.352;2022-12-18T11:13:09;10.75;;;4.38;;
72439;SDS011;60446;50.752;4.352;2022-12-18T11:15:43;10.95;;;4.05;;
72439;SDS011;60446;50.752;4.352;2022-12-18T11:18:42;9.18;;;3.63;;
72439;SDS011;60446;50.752;4.352;2022-12-18T11:21:09;7.45;;;3.03;;
72439;SDS011;60446;50.752;4.352;2022-12-18T11:23:37;12.90;;;3.10;;
72439;SDS011;60446;50.752;4.352;2022-12-18T11:26:15;9.30;;;3.40;;
72439;SDS011;60446;50.752;4.352;2022-12-18T11:28:46;10.48;;;4.50;;
72439;SDS011;60446;50.752;4.352;2022-12-18T11:31:32;10.50;;;4.63;;
72439;SDS011;60446;50.752;4.352;2022-12-18T11:36:37;12.63;;;4.00;;
72439;SDS011;60446;50.752;4.352;2022-12-18T11:39:18;17.48;;;5.90;;
72439;SDS011;60446;50.752;4.352;2022-12-18T11:41:53;18.52;;;5.53;;
72439;SDS011;60446;50.752;4.352;2022-12-18T11:49:53;12.48;;;4.00;;
72439;SDS011;60446;50.752;4.352;2022-12-18T11:52:38;11.85;;;4.20;;
72439;SDS011;60446;50.752;4.352;2022-12-18T11:55:12;5.72;;;2.60;;
72439;SDS011;60446;50.752;4.352;2022-12-18T11:57:48;10.52;;;3.72;;
72439;SDS011;60446;50.752;4.352;2022-12-18T12:00:25;9.97;;;3.50;;
72439;SDS011;60446;50.752;4.352;2022-12-18T12:03:15;10.82;;;4.55;;
72439;SDS011;60446;50.752;4.352;2022-12-18T12:05:58;15.13;;;5.80;;
72439;SDS011;60446;50.752;4.352;2022-12-18T12:17:38;12.73;;;4.10;;
72439;SDS011;60446;50.752;4.352;2022-12-18T12:20:27;14.63;;;5.05;;
72439;SDS011;60446;50.752;4.352;2022-12-18T12:38:00;10.93;;;3.85;;
72439;SDS011;60446;50.752;4.352;2022-12-18T12:40:43;9.30;;;2.63;;
72439;SDS011;60446;50.752;4.352;2022-12-18T12:46:16;16.30;;;5.47;;
72439;SDS011;60446;50.752;4.352;2022-12-18T12:51:21;10.73;;;4.85;;
72439;SDS011;60446;50.752;4.352;2022-12-18T12:53:56;12.47;;;4.30;;
72439;SDS011;60446;50.752;4.352;2022-12-18T12:56:27;11.63;;;4.63;;
72439;SDS011;60446;50.752;4.352;2022-12-18T12:59:46;12.07;;;4.15;;
72439;SDS011;60446;50.752;4.352;2022-12-18T13:07:51;9.53;;;3.30;;
72439;SDS011;60446;50.752;4.352;2022-12-18T13:10:33;12.85;;;4.35;;
72439;SDS011;60446;50.752;4.352;2022-12-18T13:13:08;14.68;;;5.00;;
72439;SDS011;60446;50.752;4.352;2022-12-18T13:15:43;14.48;;;4.97;;
72439;SDS011;60446;50.752;4.352;2022-12-18T13:18:31;9.30;;;3.55;;
72439;SDS011;60446;50.752;4.352;2022-12-18T13:26:27;18.80;;;6.10;;
72439;SDS011;60446;50.752;4.352;2022-12-18T13:28:55;10.75;;;5.38;;
72439;SDS011;60446;50.752;4.352;2022-12-18T13:34:17;22.47;;;5.90;;
72439;SDS011;60446;50.752;4.352;2022-12-18T13:36:54;13.45;;;6.47;;
72439;SDS011;60446;50.752;4.352;2022-12-18T13:39:44;13.55;;;4.60;;
72439;SDS011;60446;50.752;4.352;2022-12-18T13:44:59;18.38;;;5.25;;
72439;SDS011;60446;50.752;4.352;2022-12-18T13:47:31;13.13;;;4.70;;
72439;SDS011;60446;50.752;4.352;2022-12-18T13:50:02;13.80;;;4.72;;
72439;SDS011;60446;50.752;4.352;2022-12-18T13:52:57;16.85;;;5.65;;
72439;SDS011;60446;50.752;4.352;2022-12-18T13:55:24;16.92;;;4.70;;
72439;SDS011;60446;50.752;4.352;2022-12-18T13:58:02;21.92;;;6.25;;
72439;SDS011;60446;50.752;4.352;2022-12-18T14:00:31;17.67;;;5.97;;
72439;SDS011;60446;50.752;4.352;2022-12-18T14:02:59;13.05;;;4.82;;
72439;SDS011;60446;50.752;4.352;2022-12-18T14:05:31;18.08;;;6.38;;
72439;SDS011;60446;50.752;4.352;2022-12-18T14:08:10;15.25;;;6.05;;
72439;SDS011;60446;50.752;4.352;2022-12-18T14:10:42;7.90;;;3.47;;
72439;SDS011;60446;50.752;4.352;2022-12-18T14:13:16;19.97;;;6.77;;
72439;SDS011;60446;50.752;4.352;2022-12-18T14:15:54;12.65;;;5.35;;
72439;SDS011;60446;50.752;4.352;2022-12-18T14:18:38;17.65;;;6.00;;
72439;SDS011;60446;50.752;4.352;2022-12-18T14:21:28;16.88;;;6.15;;
72439;SDS011;60446;50.752;4.352;2022-12-18T14:24:18;21.00;;;6.57;;
72439;SDS011;60446;50.752;4.352;2022-12-18T14:26:48;15.77;;;4.93;;
72439;SDS011;60446;50.752;4.352;2022-12-18T14:29:27;19.92;;;6.07;;
72439;SDS011;60446;50.752;4.352;2022-12-18T14:34:45;12.90;;;4.60;;
72439;SDS011;60446;50.752;4.352;2022-12-18T14:37:20;21.80;;;7.63;;
72439;SDS011;60446;50.752;4.352;2022-12-18T14:40:00;22.37;;;6.33;;
72439;SDS011;60446;50.752;4.352;2022-12-18T14:42:36;20.15;;;5.65;;
72439;SDS011;60446;50.752;4.352;2022-12-18T14:48:08;17.10;;;6.18;;
72439;SDS011;60446;50.752;4.352;2022-12-18T14:50:59;13.95;;;5.15;;
72439;SDS011;60446;50.752;4.352;2022-12-18T14:53:34;13.60;;;4.17;;
72439;SDS011;60446;50.752;4.352;2022-12-18T15:01:27;16.15;;;6.25;;
72439;SDS011;60446;50.752;4.352;2022-12-18T15:03:59;18.70;;;5.53;;
72439;SDS011;60446;50.752;4.352;2022-12-18T15:06:29;16.43;;;5.57;;
72439;SDS011;60446;50.752;4.352;2022-12-18T15:09:19;15.38;;;6.38;;
72439;SDS011;60446;50.752;4.352;2022-12-18T15:11:55;16.05;;;6.10;;
72439;SDS011;60446;50.752;4.352;2022-12-18T15:17:21;18.00;;;6.80;;
72439;SDS011;60446;50.752;4.352;2022-12-18T15:19:52;15.77;;;5.13;;
72439;SDS011;60446;50.752;4.352;2022-12-18T15:22:30;16.92;;;6.35;;
72439;SDS011;60446;50.752;4.352;2022-12-18T15:25:03;23.40;;;7.60;;
72439;SDS011;60446;50.752;4.352;2022-12-18T15:27:58;14.43;;;5.25;;
72439;SDS011;60446;50.752;4.352;2022-12-18T15:30:25;16.38;;;6.47;;
72439;SDS011;60446;50.752;4.352;2022-12-18T15:33:17;14.07;;;5.67;;
72439;SDS011;60446;50.752;4.352;2022-12-18T15:36:01;15.45;;;5.32;;
72439;SDS011;60446;50.752;4.352;2022-12-18T15:38:35;13.07;;;5.45;;
72439;SDS011;60446;50.752;4.352;2022-12-18T15:41:03;19.42;;;6.78;;
72439;SDS011;60446;50.752;4.352;2022-12-18T15:43:39;23.60;;;7.35;;
72439;SDS011;60446;50.752;4.352;2022-12-18T15:46:11;9.97;;;3.63;;
72439;SDS011;60446;50.752;4.352;2022-12-18T15:48:42;9.27;;;3.47;;
72439;SDS011;60446;50.752;4.352;2022-12-18T15:51:33;17.80;;;6.30;;
72439;SDS011;60446;50.752;4.352;2022-12-18T15:54:03;12.68;;;4.45;;
72439;SDS011;60446;50.752;4.352;2022-12-18T15:56:36;15.95;;;5.72;;
72439;SDS011;60446;50.752;4.352;2022-12-18T15:59:22;14.23;;;4.80;;
72439;SDS011;60446;50.752;4.352;2022-12-18T16:01:51;12.05;;;4.63;;
72439;SDS011;60446;50.752;4.352;2022-12-18T16:04:22;13.10;;;5.45;;
72439;SDS011;60446;50.752;4.352;2022-12-18T16:06:50;14.38;;;4.22;;
72439;SDS011;60446;50.752;4.352;2022-12-18T16:09:38;14.30;;;5.10;;
72439;SDS011;60446;50.752;4.352;2022-12-18T16:12:06;18.07;;;4.53;;
72439;SDS011;60446;50.752;4.352;2022-12-18T16:14:41;14.55;;;4.32;;
72439;SDS011;60446;50.752;4.352;2022-12-18T16:17:10;15.48;;;4.95;;
72439;SDS011;60446;50.752;4.352;2022-12-18T16:19:38;15.50;;;4.70;;
72439;SDS011;60446;50.752;4.352;2022-12-18T16:22:05;11.70;;;4.75;;
72439;SDS011;60446;50.752;4.352;2022-12-18T16:24:53;14.30;;;5.53;;
72439;SDS011;60446;50.752;4.352;2022-12-18T16:27:22;18.25;;;8.02;;
72439;SDS011;60446;50.752;4.352;2022-12-18T16:29:51;7.63;;;2.75;;
72439;SDS011;60446;50.752;4.352;2022-12-18T16:32:19;17.10;;;5.60;;
72439;SDS011;60446;50.752;4.352;2022-12-18T16:34:48;15.32;;;6.15;;
72439;SDS011;60446;50.752;4.352;2022-12-18T16:37:15;10.17;;;3.00;;
72439;SDS011;60446;50.752;4.352;2022-12-18T16:39:43;12.85;;;4.70;;
72439;SDS011;60446;50.752;4.352;2022-12-18T16:42:12;19.38;;;6.00;;
72439;SDS011;60446;50.752;4.352;2022-12-18T16:44:43;11.30;;;4.43;;
72439;SDS011;60446;50.752;4.352;2022-12-18T16:47:12;14.70;;;5.18;;
72439;SDS011;60446;50.752;4.352;2022-12-18T16:49:40;14.80;;;5.23;;
72439;SDS011;60446;50.752;4.352;2022-12-18T16:52:11;15.05;;;4.93;;
72439;SDS011;60446;50.752;4.352;2022-12-18T16:54:39;17.00;;;4.85;;
72439;SDS011;60446;50.752;4.352;2022-12-18T16:57:13;15.43;;;5.13;;
72439;SDS011;60446;50.752;4.352;2022-12-18T16:59:43;12.65;;;4.75;;
72439;SDS011;60446;50.752;4.352;2022-12-18T17:04:56;14.43;;;3.25;;
72439;SDS011;60446;50.752;4.352;2022-12-18T17:07:33;16.98;;;5.25;;
72439;SDS011;60446;50.752;4.352;2022-12-18T17:10:02;18.30;;;6.93;;
72439;SDS011;60446;50.752;4.352;2022-12-18T17:12:30;23.02;;;7.45;;